sensor_id;sensor_type;location;lat;lon;timestamp;temperature;humidity
530;DHT22;251;48.704;9.210;2022-12-07T00:01:21;4.10;74.30
530;DHT22;251;48.704;9.210;2022-12-07T00:03:51;4.20;74.80
530;DHT22;251;48.704;9.210;2022-12-07T00:06:19;4.20;74.90
530;DHT22;251;48.704;9.210;2022-12-07T00:08:47;4.10;75.10
530;DHT22;251;48.704;9.210;2022-12-07T00:11:15;4.10;74.80
530;DHT22;251;48.704;9.210;2022-12-07T00:13:43;4.20;74.00
530;DHT22;251;48.704;9.210;2022-12-07T00:16:12;4.20;74.00
530;DHT22;251;48.704;9.210;2022-12-07T00:18:39;4.10;73.80
530;DHT22;251;48.704;9.210;2022-12-07T00:21:10;4.20;73.70
530;DHT22;251;48.704;9.210;2022-12-07T00:23:38;4.20;73.10
530;DHT22;251;48.704;9.210;2022-12-07T00:26:06;4.10;74.10
530;DHT22;251;48.704;9.210;2022-12-07T00:28:34;3.90;72.90
530;DHT22;251;48.704;9.210;2022-12-07T00:31:02;4.20;73.60
530;DHT22;251;48.704;9.210;2022-12-07T00:33:29;4.10;73.80
530;DHT22;251;48.704;9.210;2022-12-07T00:35:57;4.20;73.50
530;DHT22;251;48.704;9.210;2022-12-07T00:38:28;4.10;73.90
530;DHT22;251;48.704;9.210;2022-12-07T00:40:56;4.10;73.90
530;DHT22;251;48.704;9.210;2022-12-07T00:43:23;4.20;73.50
530;DHT22;251;48.704;9.210;2022-12-07T00:45:50;3.90;72.60
530;DHT22;251;48.704;9.210;2022-12-07T00:48:17;4.00;72.50
530;DHT22;251;48.704;9.210;2022-12-07T00:50:44;4.10;72.50
530;DHT22;251;48.704;9.210;2022-12-07T00:53:11;3.90;74.10
530;DHT22;251;48.704;9.210;2022-12-07T00:55:39;4.10;73.60
530;DHT22;251;48.704;9.210;2022-12-07T00:58:06;4.10;73.30
530;DHT22;251;48.704;9.210;2022-12-07T01:00:33;4.10;72.70
530;DHT22;251;48.704;9.210;2022-12-07T01:03:01;4.10;72.90
530;DHT22;251;48.704;9.210;2022-12-07T01:05:28;3.80;71.80
530;DHT22;251;48.704;9.210;2022-12-07T01:07:55;3.80;72.20
530;DHT22;251;48.704;9.210;2022-12-07T01:10:22;3.90;72.80
530;DHT22;251;48.704;9.210;2022-12-07T01:12:50;3.80;73.00
530;DHT22;251;48.704;9.210;2022-12-07T01:15:17;3.70;73.00
530;DHT22;251;48.704;9.210;2022-12-07T01:17:44;4.00;73.20
530;DHT22;251;48.704;9.210;2022-12-07T01:20:12;4.00;73.20
530;DHT22;251;48.704;9.210;2022-12-07T01:22:40;3.70;72.90
530;DHT22;251;48.704;9.210;2022-12-07T01:25:07;4.20;72.70
530;DHT22;251;48.704;9.210;2022-12-07T01:27:35;3.90;71.90
530;DHT22;251;48.704;9.210;2022-12-07T01:30:05;3.90;71.60
530;DHT22;251;48.704;9.210;2022-12-07T01:32:33;3.80;70.10
530;DHT22;251;48.704;9.210;2022-12-07T01:35:00;3.80;70.50
530;DHT22;251;48.704;9.210;2022-12-07T01:37:27;3.90;71.00
530;DHT22;251;48.704;9.210;2022-12-07T01:39:54;3.90;70.80
530;DHT22;251;48.704;9.210;2022-12-07T01:42:20;3.80;69.90
530;DHT22;251;48.704;9.210;2022-12-07T01:47:54;3.90;70.80
530;DHT22;251;48.704;9.210;2022-12-07T01:50:25;3.90;70.60
530;DHT22;251;48.704;9.210;2022-12-07T01:52:54;3.90;70.40
530;DHT22;251;48.704;9.210;2022-12-07T01:55:23;4.00;70.10
530;DHT22;251;48.704;9.210;2022-12-07T01:57:52;3.70;70.30
530;DHT22;251;48.704;9.210;2022-12-07T02:00:20;3.90;71.40
530;DHT22;251;48.704;9.210;2022-12-07T02:02:50;4.00;71.10
530;DHT22;251;48.704;9.210;2022-12-07T02:05:19;4.00;70.60
530;DHT22;251;48.704;9.210;2022-12-07T02:07:47;3.90;70.20
530;DHT22;251;48.704;9.210;2022-12-07T02:10:15;3.90;69.40
530;DHT22;251;48.704;9.210;2022-12-07T02:12:44;4.20;69.60
530;DHT22;251;48.704;9.210;2022-12-07T02:15:12;3.90;68.80
530;DHT22;251;48.704;9.210;2022-12-07T02:17:49;4.00;69.00
530;DHT22;251;48.704;9.210;2022-12-07T02:20:28;3.90;68.80
530;DHT22;251;48.704;9.210;2022-12-07T02:26:14;3.90;68.90
530;DHT22;251;48.704;9.210;2022-12-07T02:29:04;3.90;70.00
530;DHT22;251;48.704;9.210;2022-12-07T02:31:36;3.70;68.90
530;DHT22;251;48.704;9.210;2022-12-07T02:34:09;3.90;69.30
530;DHT22;251;48.704;9.210;2022-12-07T02:36:40;3.90;68.40
530;DHT22;251;48.704;9.210;2022-12-07T02:39:14;3.80;68.80
530;DHT22;251;48.704;9.210;2022-12-07T02:41:44;3.60;68.40
530;DHT22;251;48.704;9.210;2022-12-07T02:44:16;3.60;69.80
530;DHT22;251;48.704;9.210;2022-12-07T02:46:49;3.40;69.80
530;DHT22;251;48.704;9.210;2022-12-07T02:49:17;3.60;69.80
530;DHT22;251;48.704;9.210;2022-12-07T02:51:46;3.90;70.80
530;DHT22;251;48.704;9.210;2022-12-07T02:54:15;3.90;69.60
530;DHT22;251;48.704;9.210;2022-12-07T02:56:47;3.90;70.80
530;DHT22;251;48.704;9.210;2022-12-07T02:59:24;3.90;70.20
530;DHT22;251;48.704;9.210;2022-12-07T03:02:03;3.90;70.30
530;DHT22;251;48.704;9.210;2022-12-07T03:04:42;3.90;70.60
530;DHT22;251;48.704;9.210;2022-12-07T03:07:18;3.90;70.20
530;DHT22;251;48.704;9.210;2022-12-07T03:09:53;3.90;69.80
530;DHT22;251;48.704;9.210;2022-12-07T03:12:29;3.80;69.10
530;DHT22;251;48.704;9.210;2022-12-07T03:15:02;3.90;68.60
530;DHT22;251;48.704;9.210;2022-12-07T03:17:34;3.80;69.20
530;DHT22;251;48.704;9.210;2022-12-07T03:20:04;3.90;69.50
530;DHT22;251;48.704;9.210;2022-12-07T03:22:34;3.80;69.60
530;DHT22;251;48.704;9.210;2022-12-07T03:25:05;3.90;70.80
530;DHT22;251;48.704;9.210;2022-12-07T03:27:37;3.90;71.00
530;DHT22;251;48.704;9.210;2022-12-07T03:30:09;3.90;70.30
530;DHT22;251;48.704;9.210;2022-12-07T03:32:42;3.50;70.00
530;DHT22;251;48.704;9.210;2022-12-07T03:35:14;3.90;70.30
530;DHT22;251;48.704;9.210;2022-12-07T03:37:45;3.70;70.50
530;DHT22;251;48.704;9.210;2022-12-07T03:40:18;3.80;69.70
530;DHT22;251;48.704;9.210;2022-12-07T03:42:46;3.90;69.60
530;DHT22;251;48.704;9.210;2022-12-07T03:45:15;3.80;69.40
530;DHT22;251;48.704;9.210;2022-12-07T03:47:46;3.50;69.90
530;DHT22;251;48.704;9.210;2022-12-07T03:50:19;3.90;70.20
530;DHT22;251;48.704;9.210;2022-12-07T03:52:53;3.90;70.80
530;DHT22;251;48.704;9.210;2022-12-07T03:55:26;3.90;71.70
530;DHT22;251;48.704;9.210;2022-12-07T03:57:58;3.80;70.60
530;DHT22;251;48.704;9.210;2022-12-07T04:00:27;3.80;69.50
530;DHT22;251;48.704;9.210;2022-12-07T04:02:55;3.80;68.90
530;DHT22;251;48.704;9.210;2022-12-07T04:05:23;3.60;69.40
530;DHT22;251;48.704;9.210;2022-12-07T04:07:50;3.70;69.60
530;DHT22;251;48.704;9.210;2022-12-07T04:10:17;3.50;69.30
530;DHT22;251;48.704;9.210;2022-12-07T04:12:44;3.60;69.00
530;DHT22;251;48.704;9.210;2022-12-07T04:15:10;3.40;69.80
530;DHT22;251;48.704;9.210;2022-12-07T04:17:39;3.60;70.20
530;DHT22;251;48.704;9.210;2022-12-07T04:20:06;3.80;70.60
530;DHT22;251;48.704;9.210;2022-12-07T04:22:33;3.40;69.80
530;DHT22;251;48.704;9.210;2022-12-07T04:25:00;3.70;69.50
530;DHT22;251;48.704;9.210;2022-12-07T04:27:27;3.60;70.10
530;DHT22;251;48.704;9.210;2022-12-07T04:29:54;3.60;69.60
530;DHT22;251;48.704;9.210;2022-12-07T04:32:21;3.50;70.10
530;DHT22;251;48.704;9.210;2022-12-07T04:34:50;3.60;70.20
530;DHT22;251;48.704;9.210;2022-12-07T04:37:16;3.70;69.30
530;DHT22;251;48.704;9.210;2022-12-07T04:39:43;3.70;70.70
530;DHT22;251;48.704;9.210;2022-12-07T04:42:11;3.70;69.50
530;DHT22;251;48.704;9.210;2022-12-07T04:44:38;3.50;69.10
530;DHT22;251;48.704;9.210;2022-12-07T04:47:05;3.70;69.20
530;DHT22;251;48.704;9.210;2022-12-07T04:49:32;3.60;68.50
530;DHT22;251;48.704;9.210;2022-12-07T04:52:00;3.60;68.50
530;DHT22;251;48.704;9.210;2022-12-07T04:54:27;3.60;67.60
530;DHT22;251;48.704;9.210;2022-12-07T04:56:54;3.60;66.70
530;DHT22;251;48.704;9.210;2022-12-07T04:59:21;3.40;65.50
530;DHT22;251;48.704;9.210;2022-12-07T05:01:48;3.10;65.50
530;DHT22;251;48.704;9.210;2022-12-07T05:04:14;3.40;65.40
530;DHT22;251;48.704;9.210;2022-12-07T05:06:43;3.60;66.10
530;DHT22;251;48.704;9.210;2022-12-07T05:09:11;3.50;65.70
530;DHT22;251;48.704;9.210;2022-12-07T05:11:38;3.20;64.70
530;DHT22;251;48.704;9.210;2022-12-07T05:14:08;3.60;63.10
530;DHT22;251;48.704;9.210;2022-12-07T05:16:35;3.70;61.20
530;DHT22;251;48.704;9.210;2022-12-07T05:19:02;3.50;59.90
530;DHT22;251;48.704;9.210;2022-12-07T05:21:29;3.60;61.50
530;DHT22;251;48.704;9.210;2022-12-07T05:23:56;3.60;62.70
530;DHT22;251;48.704;9.210;2022-12-07T05:26:24;3.40;61.40
530;DHT22;251;48.704;9.210;2022-12-07T05:28:51;3.70;62.50
530;DHT22;251;48.704;9.210;2022-12-07T05:31:18;3.60;61.90
530;DHT22;251;48.704;9.210;2022-12-07T05:33:46;3.50;61.00
530;DHT22;251;48.704;9.210;2022-12-07T05:36:13;3.60;59.60
530;DHT22;251;48.704;9.210;2022-12-07T05:38:39;3.50;61.70
530;DHT22;251;48.704;9.210;2022-12-07T05:41:07;3.70;61.70
530;DHT22;251;48.704;9.210;2022-12-07T05:43:57;3.10;61.50
530;DHT22;251;48.704;9.210;2022-12-07T05:46:24;3.60;62.90
530;DHT22;251;48.704;9.210;2022-12-07T05:48:51;3.50;63.20
530;DHT22;251;48.704;9.210;2022-12-07T05:51:18;3.70;63.10
530;DHT22;251;48.704;9.210;2022-12-07T05:53:45;3.40;61.40
530;DHT22;251;48.704;9.210;2022-12-07T05:56:12;3.40;59.70
530;DHT22;251;48.704;9.210;2022-12-07T05:58:39;3.30;60.80
530;DHT22;251;48.704;9.210;2022-12-07T06:01:24;3.10;61.30
530;DHT22;251;48.704;9.210;2022-12-07T06:03:51;3.10;61.50
530;DHT22;251;48.704;9.210;2022-12-07T06:06:18;3.20;62.70
530;DHT22;251;48.704;9.210;2022-12-07T06:08:45;3.40;62.70
530;DHT22;251;48.704;9.210;2022-12-07T06:11:12;3.20;62.70
530;DHT22;251;48.704;9.210;2022-12-07T06:13:56;3.40;63.50
530;DHT22;251;48.704;9.210;2022-12-07T06:16:24;3.30;63.80
530;DHT22;251;48.704;9.210;2022-12-07T06:18:51;3.10;61.80
530;DHT22;251;48.704;9.210;2022-12-07T06:21:18;3.10;59.40
530;DHT22;251;48.704;9.210;2022-12-07T06:23:44;2.80;59.00
530;DHT22;251;48.704;9.210;2022-12-07T06:26:13;3.10;61.00
530;DHT22;251;48.704;9.210;2022-12-07T06:28:40;3.10;61.80
530;DHT22;251;48.704;9.210;2022-12-07T06:31:07;2.90;63.30
530;DHT22;251;48.704;9.210;2022-12-07T06:33:35;3.10;64.00
530;DHT22;251;48.704;9.210;2022-12-07T06:36:03;3.10;62.00
530;DHT22;251;48.704;9.210;2022-12-07T06:38:29;2.90;63.50
530;DHT22;251;48.704;9.210;2022-12-07T06:40:56;2.80;62.60
530;DHT22;251;48.704;9.210;2022-12-07T06:43:23;3.10;64.40
530;DHT22;251;48.704;9.210;2022-12-07T06:45:50;3.10;64.30
530;DHT22;251;48.704;9.210;2022-12-07T06:48:17;3.20;64.60
530;DHT22;251;48.704;9.210;2022-12-07T06:50:46;3.00;64.60
530;DHT22;251;48.704;9.210;2022-12-07T06:53:13;2.70;64.20
530;DHT22;251;48.704;9.210;2022-12-07T06:55:40;3.10;64.80
530;DHT22;251;48.704;9.210;2022-12-07T06:58:06;3.10;64.60
530;DHT22;251;48.704;9.210;2022-12-07T07:00:33;2.90;64.80
530;DHT22;251;48.704;9.210;2022-12-07T07:03:01;2.60;64.40
530;DHT22;251;48.704;9.210;2022-12-07T07:05:28;2.90;64.00
530;DHT22;251;48.704;9.210;2022-12-07T07:07:56;2.90;64.00
530;DHT22;251;48.704;9.210;2022-12-07T07:10:23;2.60;64.20
530;DHT22;251;48.704;9.210;2022-12-07T07:12:49;2.80;64.10
530;DHT22;251;48.704;9.210;2022-12-07T07:15:16;2.70;65.20
530;DHT22;251;48.704;9.210;2022-12-07T07:17:43;2.60;65.20
530;DHT22;251;48.704;9.210;2022-12-07T07:20:11;2.50;65.70
530;DHT22;251;48.704;9.210;2022-12-07T07:22:38;2.60;66.50
530;DHT22;251;48.704;9.210;2022-12-07T07:25:07;2.90;65.70
530;DHT22;251;48.704;9.210;2022-12-07T07:27:33;2.60;65.90
530;DHT22;251;48.704;9.210;2022-12-07T07:30:00;2.90;66.40
530;DHT22;251;48.704;9.210;2022-12-07T07:32:27;3.10;67.20
530;DHT22;251;48.704;9.210;2022-12-07T07:34:54;3.00;66.80
530;DHT22;251;48.704;9.210;2022-12-07T07:37:21;3.00;67.70
530;DHT22;251;48.704;9.210;2022-12-07T07:39:48;3.10;67.40
530;DHT22;251;48.704;9.210;2022-12-07T07:42:16;3.00;67.50
530;DHT22;251;48.704;9.210;2022-12-07T07:44:43;3.00;67.20
530;DHT22;251;48.704;9.210;2022-12-07T07:47:10;3.00;67.80
530;DHT22;251;48.704;9.210;2022-12-07T07:49:36;3.10;68.70
530;DHT22;251;48.704;9.210;2022-12-07T07:52:05;3.10;68.20
530;DHT22;251;48.704;9.210;2022-12-07T07:54:32;3.10;68.70
530;DHT22;251;48.704;9.210;2022-12-07T07:56:58;3.10;68.20
530;DHT22;251;48.704;9.210;2022-12-07T07:59:27;3.10;67.70
530;DHT22;251;48.704;9.210;2022-12-07T08:01:53;3.20;68.20
530;DHT22;251;48.704;9.210;2022-12-07T08:04:20;2.80;67.00
530;DHT22;251;48.704;9.210;2022-12-07T08:06:47;2.80;66.60
530;DHT22;251;48.704;9.210;2022-12-07T08:09:14;3.10;67.90
530;DHT22;251;48.704;9.210;2022-12-07T08:11:40;3.00;68.80
530;DHT22;251;48.704;9.210;2022-12-07T08:14:07;3.10;68.90
530;DHT22;251;48.704;9.210;2022-12-07T08:16:35;2.80;68.90
530;DHT22;251;48.704;9.210;2022-12-07T08:19:04;3.10;69.40
530;DHT22;251;48.704;9.210;2022-12-07T08:21:31;3.30;69.80
530;DHT22;251;48.704;9.210;2022-12-07T08:23:57;3.30;69.50
530;DHT22;251;48.704;9.210;2022-12-07T08:26:24;3.30;67.30
530;DHT22;251;48.704;9.210;2022-12-07T08:28:52;3.40;68.50
530;DHT22;251;48.704;9.210;2022-12-07T08:31:19;3.40;69.20
530;DHT22;251;48.704;9.210;2022-12-07T08:33:48;3.40;67.50
530;DHT22;251;48.704;9.210;2022-12-07T08:36:15;3.30;67.00
530;DHT22;251;48.704;9.210;2022-12-07T08:38:42;2.80;66.80
530;DHT22;251;48.704;9.210;2022-12-07T08:41:09;3.20;67.40
530;DHT22;251;48.704;9.210;2022-12-07T08:43:36;3.40;67.60
530;DHT22;251;48.704;9.210;2022-12-07T08:46:07;3.30;68.20
530;DHT22;251;48.704;9.210;2022-12-07T08:48:37;3.30;67.20
530;DHT22;251;48.704;9.210;2022-12-07T08:51:06;3.30;67.20
530;DHT22;251;48.704;9.210;2022-12-07T08:53:34;3.30;66.80
530;DHT22;251;48.704;9.210;2022-12-07T08:56:02;3.40;64.50
530;DHT22;251;48.704;9.210;2022-12-07T08:58:29;3.40;64.70
530;DHT22;251;48.704;9.210;2022-12-07T09:00:56;3.30;63.50
530;DHT22;251;48.704;9.210;2022-12-07T09:03:22;3.30;63.60
530;DHT22;251;48.704;9.210;2022-12-07T09:05:49;3.40;64.20
530;DHT22;251;48.704;9.210;2022-12-07T09:08:17;3.40;64.50
530;DHT22;251;48.704;9.210;2022-12-07T09:10:44;3.40;64.80
530;DHT22;251;48.704;9.210;2022-12-07T09:13:11;3.60;64.20
530;DHT22;251;48.704;9.210;2022-12-07T09:15:38;3.10;61.20
530;DHT22;251;48.704;9.210;2022-12-07T09:18:05;3.20;62.00
530;DHT22;251;48.704;9.210;2022-12-07T09:20:32;3.60;61.90
530;DHT22;251;48.704;9.210;2022-12-07T09:22:59;3.60;61.30
530;DHT22;251;48.704;9.210;2022-12-07T09:25:27;3.60;61.40
530;DHT22;251;48.704;9.210;2022-12-07T09:27:58;3.70;61.10
530;DHT22;251;48.704;9.210;2022-12-07T09:30:25;3.60;60.50
530;DHT22;251;48.704;9.210;2022-12-07T09:32:53;3.60;61.00
530;DHT22;251;48.704;9.210;2022-12-07T09:35:20;3.60;59.60
530;DHT22;251;48.704;9.210;2022-12-07T09:37:46;3.50;59.60
530;DHT22;251;48.704;9.210;2022-12-07T09:40:14;3.40;61.00
530;DHT22;251;48.704;9.210;2022-12-07T09:42:45;3.90;60.30
530;DHT22;251;48.704;9.210;2022-12-07T09:45:15;3.80;59.70
530;DHT22;251;48.704;9.210;2022-12-07T09:47:43;3.90;59.50
530;DHT22;251;48.704;9.210;2022-12-07T09:50:14;3.90;59.20
530;DHT22;251;48.704;9.210;2022-12-07T09:52:43;3.90;60.10
530;DHT22;251;48.704;9.210;2022-12-07T09:55:12;3.70;57.10
530;DHT22;251;48.704;9.210;2022-12-07T09:57:40;3.90;59.00
530;DHT22;251;48.704;9.210;2022-12-07T10:00:16;3.80;59.20
530;DHT22;251;48.704;9.210;2022-12-07T10:02:47;3.70;59.70
530;DHT22;251;48.704;9.210;2022-12-07T10:05:19;3.90;59.30
530;DHT22;251;48.704;9.210;2022-12-07T10:07:47;4.10;59.40
530;DHT22;251;48.704;9.210;2022-12-07T10:10:17;4.10;59.00
530;DHT22;251;48.704;9.210;2022-12-07T10:12:57;4.20;59.00
530;DHT22;251;48.704;9.210;2022-12-07T10:15:42;4.10;56.20
530;DHT22;251;48.704;9.210;2022-12-07T10:21:13;4.20;55.30
530;DHT22;251;48.704;9.210;2022-12-07T10:23:43;4.10;55.90
530;DHT22;251;48.704;9.210;2022-12-07T10:26:31;4.20;54.60
530;DHT22;251;48.704;9.210;2022-12-07T10:29:00;4.30;55.70
530;DHT22;251;48.704;9.210;2022-12-07T10:31:29;4.20;56.50
530;DHT22;251;48.704;9.210;2022-12-07T10:33:58;4.10;54.70
530;DHT22;251;48.704;9.210;2022-12-07T10:36:27;4.20;55.90
530;DHT22;251;48.704;9.210;2022-12-07T10:39:00;4.10;55.40
530;DHT22;251;48.704;9.210;2022-12-07T10:41:27;4.30;56.00
530;DHT22;251;48.704;9.210;2022-12-07T10:43:55;4.40;55.20
530;DHT22;251;48.704;9.210;2022-12-07T10:50:04;4.50;54.60
530;DHT22;251;48.704;9.210;2022-12-07T10:52:48;4.60;54.40
530;DHT22;251;48.704;9.210;2022-12-07T10:55:22;4.40;54.10
530;DHT22;251;48.704;9.210;2022-12-07T10:58:05;4.50;53.50
530;DHT22;251;48.704;9.210;2022-12-07T11:00:39;4.40;55.10
530;DHT22;251;48.704;9.210;2022-12-07T11:03:23;4.40;53.60
530;DHT22;251;48.704;9.210;2022-12-07T11:05:59;4.30;54.10
530;DHT22;251;48.704;9.210;2022-12-07T11:08:39;4.40;54.80
530;DHT22;251;48.704;9.210;2022-12-07T11:11:14;4.30;54.00
530;DHT22;251;48.704;9.210;2022-12-07T11:13:47;4.40;53.30
530;DHT22;251;48.704;9.210;2022-12-07T11:16:23;4.50;53.00
530;DHT22;251;48.704;9.210;2022-12-07T11:19:29;4.40;54.60
530;DHT22;251;48.704;9.210;2022-12-07T11:22:03;4.50;54.40
530;DHT22;251;48.704;9.210;2022-12-07T11:24:40;4.40;53.30
530;DHT22;251;48.704;9.210;2022-12-07T11:27:16;4.40;53.40
530;DHT22;251;48.704;9.210;2022-12-07T11:30:03;4.50;52.70
530;DHT22;251;48.704;9.210;2022-12-07T11:32:46;4.40;53.00
530;DHT22;251;48.704;9.210;2022-12-07T11:35:23;4.70;52.40
530;DHT22;251;48.704;9.210;2022-12-07T11:38:08;4.40;53.80
530;DHT22;251;48.704;9.210;2022-12-07T11:40:38;4.80;54.60
530;DHT22;251;48.704;9.210;2022-12-07T11:43:15;4.70;54.70
530;DHT22;251;48.704;9.210;2022-12-07T11:45:47;4.70;55.30
530;DHT22;251;48.704;9.210;2022-12-07T11:48:20;4.70;54.90
530;DHT22;251;48.704;9.210;2022-12-07T11:50:52;4.60;53.00
530;DHT22;251;48.704;9.210;2022-12-07T11:53:25;4.60;53.80
530;DHT22;251;48.704;9.210;2022-12-07T11:55:56;4.80;55.30
530;DHT22;251;48.704;9.210;2022-12-07T11:58:38;4.70;54.60
530;DHT22;251;48.704;9.210;2022-12-07T12:01:14;4.70;53.50
530;DHT22;251;48.704;9.210;2022-12-07T12:03:44;4.60;54.00
530;DHT22;251;48.704;9.210;2022-12-07T12:06:12;4.70;53.50
530;DHT22;251;48.704;9.210;2022-12-07T12:08:43;4.70;53.00
530;DHT22;251;48.704;9.210;2022-12-07T12:11:24;4.70;53.40
530;DHT22;251;48.704;9.210;2022-12-07T12:14:17;4.70;53.00
530;DHT22;251;48.704;9.210;2022-12-07T12:20:03;4.80;52.60
530;DHT22;251;48.704;9.210;2022-12-07T12:22:35;4.70;54.70
530;DHT22;251;48.704;9.210;2022-12-07T12:25:07;4.70;53.10
530;DHT22;251;48.704;9.210;2022-12-07T12:27:39;4.70;53.50
530;DHT22;251;48.704;9.210;2022-12-07T12:30:31;4.70;53.80
530;DHT22;251;48.704;9.210;2022-12-07T12:33:04;4.80;53.20
530;DHT22;251;48.704;9.210;2022-12-07T12:35:33;4.90;53.40
530;DHT22;251;48.704;9.210;2022-12-07T12:38:29;4.70;52.70
530;DHT22;251;48.704;9.210;2022-12-07T12:40:58;4.80;54.30
530;DHT22;251;48.704;9.210;2022-12-07T12:43:58;4.80;53.10
530;DHT22;251;48.704;9.210;2022-12-07T12:46:49;4.80;53.30
530;DHT22;251;48.704;9.210;2022-12-07T12:52:52;4.90;53.40
530;DHT22;251;48.704;9.210;2022-12-07T12:55:46;4.70;54.20
530;DHT22;251;48.704;9.210;2022-12-07T12:58:32;4.80;53.90
530;DHT22;251;48.704;9.210;2022-12-07T13:01:38;4.80;53.60
530;DHT22;251;48.704;9.210;2022-12-07T13:04:37;4.90;53.80
530;DHT22;251;48.704;9.210;2022-12-07T13:07:12;4.70;54.10
530;DHT22;251;48.704;9.210;2022-12-07T13:09:43;4.70;54.20
530;DHT22;251;48.704;9.210;2022-12-07T13:12:14;4.80;55.50
530;DHT22;251;48.704;9.210;2022-12-07T13:14:52;4.70;55.60
530;DHT22;251;48.704;9.210;2022-12-07T13:17:57;4.80;56.10
530;DHT22;251;48.704;9.210;2022-12-07T13:20:46;4.80;57.40
530;DHT22;251;48.704;9.210;2022-12-07T13:23:16;4.70;57.10
530;DHT22;251;48.704;9.210;2022-12-07T13:26:15;4.70;57.40
530;DHT22;251;48.704;9.210;2022-12-07T13:28:44;4.60;57.40
530;DHT22;251;48.704;9.210;2022-12-07T13:31:20;4.70;58.00
530;DHT22;251;48.704;9.210;2022-12-07T13:33:50;4.70;58.70
530;DHT22;251;48.704;9.210;2022-12-07T13:36:22;4.70;58.60
530;DHT22;251;48.704;9.210;2022-12-07T13:38:55;4.70;58.70
530;DHT22;251;48.704;9.210;2022-12-07T13:41:23;4.70;58.20
530;DHT22;251;48.704;9.210;2022-12-07T13:43:54;4.70;57.70
530;DHT22;251;48.704;9.210;2022-12-07T13:46:34;4.70;57.10
530;DHT22;251;48.704;9.210;2022-12-07T13:49:02;4.60;58.20
530;DHT22;251;48.704;9.210;2022-12-07T13:51:41;4.70;57.90
530;DHT22;251;48.704;9.210;2022-12-07T13:54:10;4.80;57.90
530;DHT22;251;48.704;9.210;2022-12-07T13:56:38;4.80;58.80
530;DHT22;251;48.704;9.210;2022-12-07T13:59:07;4.60;57.90
530;DHT22;251;48.704;9.210;2022-12-07T14:01:38;4.80;57.40
530;DHT22;251;48.704;9.210;2022-12-07T14:04:30;4.80;58.10
530;DHT22;251;48.704;9.210;2022-12-07T14:06:57;4.60;57.20
530;DHT22;251;48.704;9.210;2022-12-07T14:09:27;4.90;58.00
530;DHT22;251;48.704;9.210;2022-12-07T14:11:56;4.60;57.80
530;DHT22;251;48.704;9.210;2022-12-07T14:14:26;4.80;57.20
530;DHT22;251;48.704;9.210;2022-12-07T14:17:12;4.80;55.80
530;DHT22;251;48.704;9.210;2022-12-07T14:19:44;4.70;56.30
530;DHT22;251;48.704;9.210;2022-12-07T14:22:21;4.70;56.10
530;DHT22;251;48.704;9.210;2022-12-07T14:24:48;4.70;56.30
530;DHT22;251;48.704;9.210;2022-12-07T14:27:17;4.60;54.80
530;DHT22;251;48.704;9.210;2022-12-07T14:29:45;4.70;55.50
530;DHT22;251;48.704;9.210;2022-12-07T14:32:19;4.70;55.00
530;DHT22;251;48.704;9.210;2022-12-07T14:34:56;4.70;55.60
530;DHT22;251;48.704;9.210;2022-12-07T14:37:23;4.70;54.40
530;DHT22;251;48.704;9.210;2022-12-07T14:39:50;4.70;55.10
530;DHT22;251;48.704;9.210;2022-12-07T14:42:17;4.70;55.20
530;DHT22;251;48.704;9.210;2022-12-07T14:44:44;4.70;55.40
530;DHT22;251;48.704;9.210;2022-12-07T14:47:11;4.90;54.50
530;DHT22;251;48.704;9.210;2022-12-07T14:49:40;4.60;54.10
530;DHT22;251;48.704;9.210;2022-12-07T14:52:12;4.40;53.80
530;DHT22;251;48.704;9.210;2022-12-07T14:54:41;4.80;53.50
530;DHT22;251;48.704;9.210;2022-12-07T14:57:08;4.80;54.10
530;DHT22;251;48.704;9.210;2022-12-07T14:59:35;4.60;53.50
530;DHT22;251;48.704;9.210;2022-12-07T15:02:02;4.40;53.30
530;DHT22;251;48.704;9.210;2022-12-07T15:04:29;4.50;53.70
530;DHT22;251;48.704;9.210;2022-12-07T15:06:59;4.50;54.50
530;DHT22;251;48.704;9.210;2022-12-07T15:09:27;4.40;54.00
530;DHT22;251;48.704;9.210;2022-12-07T15:11:53;4.60;53.70
530;DHT22;251;48.704;9.210;2022-12-07T15:14:20;4.50;54.00
530;DHT22;251;48.704;9.210;2022-12-07T15:16:47;4.70;54.40
530;DHT22;251;48.704;9.210;2022-12-07T15:19:16;4.70;54.50
530;DHT22;251;48.704;9.210;2022-12-07T15:21:43;4.40;53.00
530;DHT22;251;48.704;9.210;2022-12-07T15:24:12;4.50;54.10
530;DHT22;251;48.704;9.210;2022-12-07T15:26:39;4.70;54.50
530;DHT22;251;48.704;9.210;2022-12-07T15:29:06;4.70;54.10
530;DHT22;251;48.704;9.210;2022-12-07T15:31:34;4.40;54.00
530;DHT22;251;48.704;9.210;2022-12-07T15:34:01;4.80;54.30
530;DHT22;251;48.704;9.210;2022-12-07T15:36:30;4.70;54.10
530;DHT22;251;48.704;9.210;2022-12-07T15:38:57;4.60;54.20
530;DHT22;251;48.704;9.210;2022-12-07T15:41:25;4.50;53.80
530;DHT22;251;48.704;9.210;2022-12-07T15:43:52;4.70;54.40
530;DHT22;251;48.704;9.210;2022-12-07T15:46:38;4.50;54.30
530;DHT22;251;48.704;9.210;2022-12-07T15:49:10;4.70;55.30
530;DHT22;251;48.704;9.210;2022-12-07T15:51:37;4.50;55.60
530;DHT22;251;48.704;9.210;2022-12-07T15:54:04;4.30;55.60
530;DHT22;251;48.704;9.210;2022-12-07T15:56:32;4.50;55.90
530;DHT22;251;48.704;9.210;2022-12-07T15:58:59;4.50;56.40
530;DHT22;251;48.704;9.210;2022-12-07T16:01:26;4.50;56.50
530;DHT22;251;48.704;9.210;2022-12-07T16:03:53;4.40;57.10
530;DHT22;251;48.704;9.210;2022-12-07T16:06:19;4.40;56.80
530;DHT22;251;48.704;9.210;2022-12-07T16:08:46;4.40;56.50
530;DHT22;251;48.704;9.210;2022-12-07T16:11:14;4.40;56.80
530;DHT22;251;48.704;9.210;2022-12-07T16:13:42;4.40;56.70
530;DHT22;251;48.704;9.210;2022-12-07T16:16:12;4.50;56.80
530;DHT22;251;48.704;9.210;2022-12-07T16:18:39;4.40;56.50
530;DHT22;251;48.704;9.210;2022-12-07T16:21:06;4.50;56.80
530;DHT22;251;48.704;9.210;2022-12-07T16:23:33;4.40;56.90
530;DHT22;251;48.704;9.210;2022-12-07T16:26:04;4.40;57.40
530;DHT22;251;48.704;9.210;2022-12-07T16:28:31;4.40;57.60
530;DHT22;251;48.704;9.210;2022-12-07T16:31:05;4.00;57.00
530;DHT22;251;48.704;9.210;2022-12-07T16:33:34;4.30;57.80
530;DHT22;251;48.704;9.210;2022-12-07T16:36:04;4.20;57.80
530;DHT22;251;48.704;9.210;2022-12-07T16:38:31;4.20;57.70
530;DHT22;251;48.704;9.210;2022-12-07T16:40:58;4.10;57.60
530;DHT22;251;48.704;9.210;2022-12-07T16:43:25;4.10;58.60
530;DHT22;251;48.704;9.210;2022-12-07T16:45:52;4.30;57.90
530;DHT22;251;48.704;9.210;2022-12-07T16:48:20;4.10;57.30
530;DHT22;251;48.704;9.210;2022-12-07T16:50:47;4.20;58.00
530;DHT22;251;48.704;9.210;2022-12-07T16:53:15;4.10;57.60
530;DHT22;251;48.704;9.210;2022-12-07T16:55:44;3.90;57.80
530;DHT22;251;48.704;9.210;2022-12-07T16:58:11;4.20;57.30
530;DHT22;251;48.704;9.210;2022-12-07T17:00:39;4.20;56.50
530;DHT22;251;48.704;9.210;2022-12-07T17:03:06;4.10;57.10
530;DHT22;251;48.704;9.210;2022-12-07T17:05:37;4.20;57.40
530;DHT22;251;48.704;9.210;2022-12-07T17:08:04;4.20;56.60
530;DHT22;251;48.704;9.210;2022-12-07T17:10:32;4.10;57.80
530;DHT22;251;48.704;9.210;2022-12-07T17:13:00;4.10;57.00
530;DHT22;251;48.704;9.210;2022-12-07T17:15:27;4.10;57.40
530;DHT22;251;48.704;9.210;2022-12-07T17:17:55;4.20;57.80
530;DHT22;251;48.704;9.210;2022-12-07T17:20:24;4.10;57.40
530;DHT22;251;48.704;9.210;2022-12-07T17:22:53;4.00;57.00
530;DHT22;251;48.704;9.210;2022-12-07T17:25:20;3.80;57.10
530;DHT22;251;48.704;9.210;2022-12-07T17:27:47;3.90;57.50
530;DHT22;251;48.704;9.210;2022-12-07T17:30:14;3.90;57.60
530;DHT22;251;48.704;9.210;2022-12-07T17:32:41;3.70;57.60